sensor_id;sensor_type;location;lat;lon;timestamp;P1;durP1;ratioP1;P2;durP2;ratioP2
24279;SDS011;12395;42.808;23.408;2022-09-21T00:02:10;4.40;;;2.92;;
24279;SDS011;12395;42.808;23.408;2022-09-21T00:04:36;4.07;;;3.13;;
24279;SDS011;12395;42.808;23.408;2022-09-21T00:07:01;3.58;;;2.75;;
24279;SDS011;12395;42.808;23.408;2022-09-21T00:09:27;3.00;;;2.70;;
24279;SDS011;12395;42.808;23.408;2022-09-21T00:11:52;4.05;;;2.90;;
24279;SDS011;12395;42.808;23.408;2022-09-21T00:14:18;3.15;;;2.80;;
24279;SDS011;12395;42.808;23.408;2022-09-21T00:16:43;5.07;;;2.85;;
24279;SDS011;12395;42.808;23.408;2022-09-21T00:19:09;4.93;;;2.90;;
24279;SDS011;12395;42.808;23.408;2022-09-21T00:21:34;3.95;;;2.95;;
24279;SDS011;12395;42.808;23.408;2022-09-21T00:24:02;3.97;;;3.10;;
24279;SDS011;12395;42.808;23.408;2022-09-21T00:26:28;3.28;;;2.70;;
24279;SDS011;12395;42.808;23.408;2022-09-21T00:28:56;4.28;;;3.00;;
24279;SDS011;12395;42.808;23.408;2022-09-21T00:31:24;4.65;;;3.08;;
24279;SDS011;12395;42.808;23.408;2022-09-21T00:33:51;3.70;;;3.00;;
24279;SDS011;12395;42.808;23.408;2022-09-21T00:36:18;3.70;;;3.00;;
24279;SDS011;12395;42.808;23.408;2022-09-21T00:38:53;3.72;;;3.25;;
24279;SDS011;12395;42.808;23.408;2022-09-21T00:41:20;4.03;;;2.90;;
24279;SDS011;12395;42.808;23.408;2022-09-21T00:43:47;3.47;;;3.05;;
24279;SDS011;12395;42.808;23.408;2022-09-21T00:46:33;4.78;;;3.25;;
24279;SDS011;12395;42.808;23.408;2022-09-21T00:49:01;4.13;;;2.78;;
24279;SDS011;12395;42.808;23.408;2022-09-21T00:51:27;3.63;;;2.90;;
24279;SDS011;12395;42.808;23.408;2022-09-21T00:53:55;3.65;;;2.50;;
24279;SDS011;12395;42.808;23.408;2022-09-21T00:56:26;3.25;;;2.78;;
24279;SDS011;12395;42.808;23.408;2022-09-21T00:58:53;3.00;;;2.70;;
24279;SDS011;12395;42.808;23.408;2022-09-21T01:01:19;3.78;;;3.10;;
24279;SDS011;12395;42.808;23.408;2022-09-21T01:03:46;3.22;;;2.92;;
24279;SDS011;12395;42.808;23.408;2022-09-21T01:06:13;3.30;;;3.00;;
24279;SDS011;12395;42.808;23.408;2022-09-21T01:08:42;4.13;;;2.80;;
24279;SDS011;12395;42.808;23.408;2022-09-21T01:17:17;3.25;;;2.90;;
24279;SDS011;12395;42.808;23.408;2022-09-21T01:31:00;3.95;;;2.75;;
24279;SDS011;12395;42.808;23.408;2022-09-21T01:33:40;4.30;;;3.17;;
24279;SDS011;12395;42.808;23.408;2022-09-21T01:36:13;5.32;;;3.20;;
24279;SDS011;12395;42.808;23.408;2022-09-21T01:38:49;4.03;;;3.05;;
24279;SDS011;12395;42.808;23.408;2022-09-21T01:41:19;3.70;;;3.00;;
24279;SDS011;12395;42.808;23.408;2022-09-21T01:43:51;3.78;;;3.03;;
24279;SDS011;12395;42.808;23.408;2022-09-21T01:46:20;3.88;;;3.10;;
24279;SDS011;12395;42.808;23.408;2022-09-21T01:48:58;4.20;;;3.17;;
24279;SDS011;12395;42.808;23.408;2022-09-21T01:51:28;4.25;;;3.13;;
24279;SDS011;12395;42.808;23.408;2022-09-21T01:54:02;3.65;;;3.10;;
24279;SDS011;12395;42.808;23.408;2022-09-21T01:56:43;3.50;;;3.00;;
24279;SDS011;12395;42.808;23.408;2022-09-21T01:59:57;4.40;;;3.20;;
24279;SDS011;12395;42.808;23.408;2022-09-21T02:02:18;4.75;;;2.80;;
24279;SDS011;12395;42.808;23.408;2022-09-21T02:04:49;3.40;;;2.95;;
24279;SDS011;12395;42.808;23.408;2022-09-21T02:07:15;4.47;;;3.40;;
24279;SDS011;12395;42.808;23.408;2022-09-21T02:12:08;4.50;;;3.17;;
24279;SDS011;12395;42.808;23.408;2022-09-21T02:14:34;3.42;;;3.05;;
24279;SDS011;12395;42.808;23.408;2022-09-21T02:19:43;3.45;;;3.03;;
24279;SDS011;12395;42.808;23.408;2022-09-21T02:22:16;4.20;;;3.20;;
24279;SDS011;12395;42.808;23.408;2022-09-21T02:24:54;4.20;;;3.10;;
24279;SDS011;12395;42.808;23.408;2022-09-21T02:30:25;4.32;;;3.35;;
24279;SDS011;12395;42.808;23.408;2022-09-21T02:43:32;4.40;;;3.20;;
24279;SDS011;12395;42.808;23.408;2022-09-21T02:46:08;4.53;;;3.28;;
24279;SDS011;12395;42.808;23.408;2022-09-21T02:48:44;4.30;;;3.45;;
24279;SDS011;12395;42.808;23.408;2022-09-21T02:51:20;3.97;;;3.17;;
24279;SDS011;12395;42.808;23.408;2022-09-21T02:53:50;4.07;;;3.47;;
24279;SDS011;12395;42.808;23.408;2022-09-21T02:56:18;4.90;;;3.45;;
24279;SDS011;12395;42.808;23.408;2022-09-21T02:58:46;4.18;;;3.53;;
24279;SDS011;12395;42.808;23.408;2022-09-21T03:01:18;4.17;;;3.47;;
24279;SDS011;12395;42.808;23.408;2022-09-21T03:03:44;4.70;;;3.63;;
24279;SDS011;12395;42.808;23.408;2022-09-21T03:06:10;5.63;;;3.80;;
24279;SDS011;12395;42.808;23.408;2022-09-21T03:08:36;4.70;;;3.80;;
24279;SDS011;12395;42.808;23.408;2022-09-21T03:11:01;4.78;;;3.60;;
24279;SDS011;12395;42.808;23.408;2022-09-21T03:13:27;5.17;;;3.87;;
24279;SDS011;12395;42.808;23.408;2022-09-21T03:15:59;5.80;;;4.07;;
24279;SDS011;12395;42.808;23.408;2022-09-21T03:18:26;4.60;;;3.63;;
24279;SDS011;12395;42.808;23.408;2022-09-21T03:20:52;4.70;;;3.53;;
24279;SDS011;12395;42.808;23.408;2022-09-21T03:23:17;5.90;;;3.70;;
24279;SDS011;12395;42.808;23.408;2022-09-21T03:25:43;4.40;;;3.50;;
24279;SDS011;12395;42.808;23.408;2022-09-21T03:28:10;4.20;;;3.40;;
24279;SDS011;12395;42.808;23.408;2022-09-21T03:30:36;4.32;;;3.40;;
24279;SDS011;12395;42.808;23.408;2022-09-21T03:33:02;4.38;;;3.30;;
24279;SDS011;12395;42.808;23.408;2022-09-21T03:35:29;4.72;;;3.25;;
24279;SDS011;12395;42.808;23.408;2022-09-21T03:37:54;5.20;;;3.67;;
24279;SDS011;12395;42.808;23.408;2022-09-21T03:40:19;4.30;;;3.45;;
24279;SDS011;12395;42.808;23.408;2022-09-21T03:42:46;4.68;;;3.38;;
24279;SDS011;12395;42.808;23.408;2022-09-21T03:45:11;4.57;;;3.47;;
24279;SDS011;12395;42.808;23.408;2022-09-21T03:47:37;4.10;;;3.37;;
24279;SDS011;12395;42.808;23.408;2022-09-21T03:50:04;4.18;;;3.50;;
24279;SDS011;12395;42.808;23.408;2022-09-21T03:52:30;4.72;;;3.67;;
24279;SDS011;12395;42.808;23.408;2022-09-21T03:54:56;5.03;;;3.40;;
24279;SDS011;12395;42.808;23.408;2022-09-21T03:57:22;4.65;;;3.15;;
24279;SDS011;12395;42.808;23.408;2022-09-21T03:59:47;4.33;;;3.40;;
24279;SDS011;12395;42.808;23.408;2022-09-21T04:02:13;5.13;;;3.53;;
24279;SDS011;12395;42.808;23.408;2022-09-21T04:04:40;5.05;;;3.70;;
24279;SDS011;12395;42.808;23.408;2022-09-21T04:07:06;4.20;;;3.50;;
24279;SDS011;12395;42.808;23.408;2022-09-21T04:09:31;5.27;;;3.67;;
24279;SDS011;12395;42.808;23.408;2022-09-21T04:11:57;5.10;;;3.75;;
24279;SDS011;12395;42.808;23.408;2022-09-21T04:14:22;3.93;;;3.20;;
24279;SDS011;12395;42.808;23.408;2022-09-21T04:16:48;5.00;;;3.70;;
24279;SDS011;12395;42.808;23.408;2022-09-21T04:19:16;5.57;;;3.42;;
24279;SDS011;12395;42.808;23.408;2022-09-21T04:21:41;7.07;;;4.00;;
24279;SDS011;12395;42.808;23.408;2022-09-21T04:24:07;5.00;;;3.70;;
24279;SDS011;12395;42.808;23.408;2022-09-21T04:26:33;5.63;;;3.83;;
24279;SDS011;12395;42.808;23.408;2022-09-21T04:28:59;5.93;;;4.05;;
24279;SDS011;12395;42.808;23.408;2022-09-21T04:31:26;5.43;;;3.65;;
24279;SDS011;12395;42.808;23.408;2022-09-21T04:33:53;5.73;;;4.03;;
24279;SDS011;12395;42.808;23.408;2022-09-21T04:36:20;6.50;;;3.83;;
24279;SDS011;12395;42.808;23.408;2022-09-21T04:38:46;4.55;;;3.50;;
24279;SDS011;12395;42.808;23.408;2022-09-21T04:41:12;5.13;;;3.80;;
24279;SDS011;12395;42.808;23.408;2022-09-21T04:43:40;5.50;;;3.77;;
24279;SDS011;12395;42.808;23.408;2022-09-21T04:46:08;5.80;;;3.87;;
24279;SDS011;12395;42.808;23.408;2022-09-21T04:48:35;6.07;;;3.88;;
24279;SDS011;12395;42.808;23.408;2022-09-21T04:51:00;5.18;;;3.85;;
24279;SDS011;12395;42.808;23.408;2022-09-21T04:53:28;5.25;;;3.92;;
24279;SDS011;12395;42.808;23.408;2022-09-21T04:55:54;5.90;;;4.13;;
24279;SDS011;12395;42.808;23.408;2022-09-21T04:58:20;5.47;;;4.00;;
24279;SDS011;12395;42.808;23.408;2022-09-21T05:00:52;6.60;;;4.00;;
24279;SDS011;12395;42.808;23.408;2022-09-21T05:03:19;5.60;;;4.30;;
24279;SDS011;12395;42.808;23.408;2022-09-21T05:05:45;6.43;;;4.17;;
24279;SDS011;12395;42.808;23.408;2022-09-21T05:08:15;5.90;;;4.03;;
24279;SDS011;12395;42.808;23.408;2022-09-21T05:10:41;7.30;;;3.83;;
24279;SDS011;12395;42.808;23.408;2022-09-21T05:13:08;5.93;;;4.30;;
24279;SDS011;12395;42.808;23.408;2022-09-21T05:15:35;8.07;;;4.43;;
24279;SDS011;12395;42.808;23.408;2022-09-21T05:18:03;6.40;;;4.20;;
24279;SDS011;12395;42.808;23.408;2022-09-21T05:20:28;6.35;;;4.50;;
24279;SDS011;12395;42.808;23.408;2022-09-21T05:22:54;5.57;;;4.13;;
24279;SDS011;12395;42.808;23.408;2022-09-21T05:25:19;6.05;;;4.75;;
24279;SDS011;12395;42.808;23.408;2022-09-21T05:27:44;7.38;;;4.85;;
24279;SDS011;12395;42.808;23.408;2022-09-21T05:30:10;6.45;;;5.25;;
24279;SDS011;12395;42.808;23.408;2022-09-21T05:32:44;8.75;;;4.70;;
24279;SDS011;12395;42.808;23.408;2022-09-21T05:35:17;6.13;;;4.60;;
24279;SDS011;12395;42.808;23.408;2022-09-21T05:40:42;5.97;;;4.20;;
24279;SDS011;12395;42.808;23.408;2022-09-21T05:43:09;5.55;;;3.80;;
24279;SDS011;12395;42.808;23.408;2022-09-21T05:45:36;4.63;;;3.90;;
24279;SDS011;12395;42.808;23.408;2022-09-21T05:50:55;4.10;;;3.22;;
24279;SDS011;12395;42.808;23.408;2022-09-21T05:54:03;4.38;;;3.60;;
24279;SDS011;12395;42.808;23.408;2022-09-21T05:58:55;5.32;;;3.75;;
24279;SDS011;12395;42.808;23.408;2022-09-21T06:04:21;6.50;;;3.88;;
24279;SDS011;12395;42.808;23.408;2022-09-21T06:06:47;5.50;;;3.90;;
24279;SDS011;12395;42.808;23.408;2022-09-21T06:09:12;5.57;;;3.58;;
24279;SDS011;12395;42.808;23.408;2022-09-21T06:11:37;4.57;;;3.65;;
24279;SDS011;12395;42.808;23.408;2022-09-21T06:14:03;4.22;;;3.40;;
24279;SDS011;12395;42.808;23.408;2022-09-21T06:16:35;5.03;;;3.58;;
24279;SDS011;12395;42.808;23.408;2022-09-21T06:19:02;6.68;;;3.70;;
24279;SDS011;12395;42.808;23.408;2022-09-21T06:21:27;5.60;;;3.75;;
24279;SDS011;12395;42.808;23.408;2022-09-21T06:23:52;6.82;;;4.43;;
24279;SDS011;12395;42.808;23.408;2022-09-21T06:26:18;6.70;;;4.32;;
24279;SDS011;12395;42.808;23.408;2022-09-21T06:28:43;6.32;;;4.00;;
24279;SDS011;12395;42.808;23.408;2022-09-21T06:31:08;7.60;;;3.80;;
24279;SDS011;12395;42.808;23.408;2022-09-21T06:33:34;5.82;;;3.90;;
24279;SDS011;12395;42.808;23.408;2022-09-21T06:36:01;5.65;;;3.70;;
24279;SDS011;12395;42.808;23.408;2022-09-21T06:38:27;4.85;;;3.58;;
24279;SDS011;12395;42.808;23.408;2022-09-21T06:40:53;5.40;;;3.75;;
24279;SDS011;12395;42.808;23.408;2022-09-21T06:43:20;3.67;;;2.90;;
24279;SDS011;12395;42.808;23.408;2022-09-21T06:45:56;3.95;;;3.20;;
24279;SDS011;12395;42.808;23.408;2022-09-21T06:48:22;3.97;;;2.92;;
24279;SDS011;12395;42.808;23.408;2022-09-21T06:50:48;4.18;;;3.15;;
24279;SDS011;12395;42.808;23.408;2022-09-21T06:53:14;5.55;;;2.88;;
24279;SDS011;12395;42.808;23.408;2022-09-21T06:55:40;4.82;;;2.90;;
24279;SDS011;12395;42.808;23.408;2022-09-21T06:58:06;3.42;;;2.80;;
24279;SDS011;12395;42.808;23.408;2022-09-21T07:00:31;6.70;;;2.80;;
24279;SDS011;12395;42.808;23.408;2022-09-21T07:02:58;3.20;;;2.83;;
24279;SDS011;12395;42.808;23.408;2022-09-21T07:05:24;6.43;;;3.25;;
24279;SDS011;12395;42.808;23.408;2022-09-21T07:07:49;4.18;;;2.78;;
24279;SDS011;12395;42.808;23.408;2022-09-21T07:10:15;5.22;;;2.80;;
24279;SDS011;12395;42.808;23.408;2022-09-21T07:12:41;4.72;;;2.50;;
24279;SDS011;12395;42.808;23.408;2022-09-21T07:15:08;3.10;;;2.42;;
24279;SDS011;12395;42.808;23.408;2022-09-21T07:17:34;3.20;;;2.42;;
24279;SDS011;12395;42.808;23.408;2022-09-21T07:20:01;4.53;;;2.90;;
24279;SDS011;12395;42.808;23.408;2022-09-21T07:22:29;5.55;;;3.63;;
24279;SDS011;12395;42.808;23.408;2022-09-21T07:24:57;5.70;;;4.38;;
24279;SDS011;12395;42.808;23.408;2022-09-21T07:27:23;5.28;;;3.90;;
24279;SDS011;12395;42.808;23.408;2022-09-21T07:29:50;5.95;;;3.40;;
24279;SDS011;12395;42.808;23.408;2022-09-21T07:32:16;3.92;;;2.90;;
24279;SDS011;12395;42.808;23.408;2022-09-21T07:34:42;3.97;;;2.42;;
24279;SDS011;12395;42.808;23.408;2022-09-21T07:37:07;4.18;;;2.55;;
24279;SDS011;12395;42.808;23.408;2022-09-21T07:39:33;3.17;;;2.08;;
24279;SDS011;12395;42.808;23.408;2022-09-21T07:41:59;2.45;;;2.03;;
24279;SDS011;12395;42.808;23.408;2022-09-21T07:44:25;3.42;;;2.00;;
24279;SDS011;12395;42.808;23.408;2022-09-21T07:46:51;2.88;;;1.90;;
24279;SDS011;12395;42.808;23.408;2022-09-21T07:49:16;2.50;;;1.98;;
24279;SDS011;12395;42.808;23.408;2022-09-21T07:51:41;2.10;;;1.90;;
24279;SDS011;12395;42.808;23.408;2022-09-21T07:54:08;2.00;;;1.80;;
24279;SDS011;12395;42.808;23.408;2022-09-21T07:56:35;2.10;;;1.60;;
24279;SDS011;12395;42.808;23.408;2022-09-21T07:59:01;2.43;;;1.70;;
24279;SDS011;12395;42.808;23.408;2022-09-21T08:01:30;3.95;;;1.90;;
24279;SDS011;12395;42.808;23.408;2022-09-21T08:03:57;3.42;;;2.00;;
24279;SDS011;12395;42.808;23.408;2022-09-21T08:06:24;5.40;;;2.50;;
24279;SDS011;12395;42.808;23.408;2022-09-21T08:08:51;2.40;;;1.88;;
24279;SDS011;12395;42.808;23.408;2022-09-21T08:11:18;2.53;;;1.83;;
24279;SDS011;12395;42.808;23.408;2022-09-21T08:13:50;2.45;;;1.83;;
24279;SDS011;12395;42.808;23.408;2022-09-21T08:16:16;3.80;;;2.08;;
24279;SDS011;12395;42.808;23.408;2022-09-21T08:18:42;3.30;;;2.47;;
24279;SDS011;12395;42.808;23.408;2022-09-21T08:21:08;3.28;;;2.15;;
24279;SDS011;12395;42.808;23.408;2022-09-21T08:23:34;4.93;;;2.40;;
24279;SDS011;12395;42.808;23.408;2022-09-21T08:26:04;4.90;;;2.78;;
24279;SDS011;12395;42.808;23.408;2022-09-21T08:28:31;3.10;;;2.20;;
24279;SDS011;12395;42.808;23.408;2022-09-21T08:31:04;3.50;;;2.30;;
24279;SDS011;12395;42.808;23.408;2022-09-21T08:33:32;3.35;;;2.33;;
24279;SDS011;12395;42.808;23.408;2022-09-21T08:35:58;2.40;;;1.85;;
24279;SDS011;12395;42.808;23.408;2022-09-21T08:38:25;2.60;;;1.90;;
24279;SDS011;12395;42.808;23.408;2022-09-21T08:40:52;2.72;;;2.10;;
24279;SDS011;12395;42.808;23.408;2022-09-21T08:45:59;7.45;;;3.25;;
24279;SDS011;12395;42.808;23.408;2022-09-21T08:48:30;3.88;;;2.58;;
24279;SDS011;12395;42.808;23.408;2022-09-21T08:51:03;3.75;;;2.08;;
24279;SDS011;12395;42.808;23.408;2022-09-21T08:53:33;4.15;;;2.30;;
24279;SDS011;12395;42.808;23.408;2022-09-21T08:56:05;3.30;;;1.75;;
24279;SDS011;12395;42.808;23.408;2022-09-21T08:58:30;2.72;;;1.80;;
24279;SDS011;12395;42.808;23.408;2022-09-21T09:12:19;2.22;;;2.03;;
24279;SDS011;12395;42.808;23.408;2022-09-21T09:22:45;3.20;;;1.08;;
24279;SDS011;12395;42.808;23.408;2022-09-21T09:25:16;2.13;;;0.90;;
24279;SDS011;12395;42.808;23.408;2022-09-21T09:27:45;1.92;;;0.90;;
24279;SDS011;12395;42.808;23.408;2022-09-21T09:30:23;1.73;;;1.40;;
24279;SDS011;12395;42.808;23.408;2022-09-21T09:32:58;1.98;;;1.45;;
24279;SDS011;12395;42.808;23.408;2022-09-21T09:35:48;2.38;;;1.60;;
24279;SDS011;12395;42.808;23.408;2022-09-21T09:39:09;1.95;;;1.40;;
24279;SDS011;12395;42.808;23.408;2022-09-21T09:41:18;2.47;;;1.38;;
24279;SDS011;12395;42.808;23.408;2022-09-21T09:52:30;1.80;;;1.40;;
24279;SDS011;12395;42.808;23.408;2022-09-21T09:54:57;2.33;;;1.40;;
24279;SDS011;12395;42.808;23.408;2022-09-21T09:57:26;3.17;;;1.70;;
24279;SDS011;12395;42.808;23.408;2022-09-21T09:59:54;2.83;;;1.30;;
24279;SDS011;12395;42.808;23.408;2022-09-21T10:02:32;1.25;;;1.00;;
24279;SDS011;12395;42.808;23.408;2022-09-21T10:05:17;1.88;;;1.25;;
24279;SDS011;12395;42.808;23.408;2022-09-21T10:08:03;2.50;;;1.55;;
24279;SDS011;12395;42.808;23.408;2022-09-21T10:13:14;1.27;;;1.17;;
24279;SDS011;12395;42.808;23.408;2022-09-21T10:15:53;2.45;;;1.20;;
24279;SDS011;12395;42.808;23.408;2022-09-21T10:18:28;1.73;;;1.17;;
24279;SDS011;12395;42.808;23.408;2022-09-21T10:20:59;3.25;;;1.20;;
24279;SDS011;12395;42.808;23.408;2022-09-21T10:23:32;1.73;;;1.10;;
24279;SDS011;12395;42.808;23.408;2022-09-21T10:26:02;2.05;;;1.27;;
24279;SDS011;12395;42.808;23.408;2022-09-21T10:28:30;0.80;;;0.80;;
24279;SDS011;12395;42.808;23.408;2022-09-21T10:33:34;1.10;;;1.00;;
24279;SDS011;12395;42.808;23.408;2022-09-21T10:36:25;1.67;;;0.93;;
24279;SDS011;12395;42.808;23.408;2022-09-21T10:38:51;0.60;;;0.60;;
24279;SDS011;12395;42.808;23.408;2022-09-21T10:41:17;0.70;;;0.70;;
24279;SDS011;12395;42.808;23.408;2022-09-21T10:43:43;0.75;;;0.70;;
24279;SDS011;12395;42.808;23.408;2022-09-21T10:46:08;1.20;;;1.10;;
24279;SDS011;12395;42.808;23.408;2022-09-21T10:48:34;0.80;;;0.80;;
24279;SDS011;12395;42.808;23.408;2022-09-21T10:51:00;1.35;;;0.80;;
24279;SDS011;12395;42.808;23.408;2022-09-21T10:53:28;2.47;;;1.15;;
24279;SDS011;12395;42.808;23.408;2022-09-21T10:58:30;1.45;;;1.30;;
24279;SDS011;12395;42.808;23.408;2022-09-21T11:01:43;2.75;;;1.40;;
24279;SDS011;12395;42.808;23.408;2022-09-21T11:03:52;2.22;;;0.60;;
24279;SDS011;12395;42.808;23.408;2022-09-21T11:06:34;1.33;;;0.70;;
24279;SDS011;12395;42.808;23.408;2022-09-21T11:17:36;1.83;;;1.00;;
24279;SDS011;12395;42.808;23.408;2022-09-21T11:20:27;1.83;;;1.10;;
24279;SDS011;12395;42.808;23.408;2022-09-21T11:28:54;2.72;;;1.05;;
24279;SDS011;12395;42.808;23.408;2022-09-21T11:31:40;1.20;;;1.00;;
24279;SDS011;12395;42.808;23.408;2022-09-21T11:40:01;1.90;;;1.20;;
24279;SDS011;12395;42.808;23.408;2022-09-21T11:45:02;2.85;;;1.10;;
24279;SDS011;12395;42.808;23.408;2022-09-21T12:04:58;0.85;;;0.85;;
24279;SDS011;12395;42.808;23.408;2022-09-21T12:11:28;0.80;;;0.80;;
24279;SDS011;12395;42.808;23.408;2022-09-21T12:21:40;0.50;;;0.50;;
24279;SDS011;12395;42.808;23.408;2022-09-21T12:24:14;0.50;;;0.50;;
24279;SDS011;12395;42.808;23.408;2022-09-21T12:26:53;0.98;;;0.82;;
24279;SDS011;12395;42.808;23.408;2022-09-21T12:29:24;0.88;;;0.80;;
24279;SDS011;12395;42.808;23.408;2022-09-21T12:34:18;0.50;;;0.50;;
24279;SDS011;12395;42.808;23.408;2022-09-21T12:36:57;0.50;;;0.50;;
24279;SDS011;12395;42.808;23.408;2022-09-21T12:39:38;0.43;;;0.40;;
24279;SDS011;12395;42.808;23.408;2022-09-21T12:44:51;0.40;;;0.40;;
24279;SDS011;12395;42.808;23.408;2022-09-21T12:47:38;0.20;;;0.20;;
24279;SDS011;12395;42.808;23.408;2022-09-21T12:50:15;0.43;;;0.40;;
24279;SDS011;12395;42.808;23.408;2022-09-21T12:52:50;0.90;;;0.40;;
24279;SDS011;12395;42.808;23.408;2022-09-21T13:00:54;0.28;;;0.28;;
24279;SDS011;12395;42.808;23.408;2022-09-21T13:03:42;1.02;;;0.40;;
24279;SDS011;12395;42.808;23.408;2022-09-21T13:09:38;0.30;;;0.27;;
24279;SDS011;12395;42.808;23.408;2022-09-21T13:12:12;0.20;;;0.20;;
24279;SDS011;12395;42.808;23.408;2022-09-21T13:14:42;0.65;;;0.30;;
24279;SDS011;12395;42.808;23.408;2022-09-21T13:17:21;0.20;;;0.20;;
24279;SDS011;12395;42.808;23.408;2022-09-21T13:19:59;0.10;;;0.10;;
24279;SDS011;12395;42.808;23.408;2022-09-21T13:22:31;0.17;;;0.17;;
24279;SDS011;12395;42.808;23.408;2022-09-21T13:30:39;0.20;;;0.20;;
24279;SDS011;12395;42.808;23.408;2022-09-21T13:51:34;0.40;;;0.30;;
24279;SDS011;12395;42.808;23.408;2022-09-21T13:54:14;0.20;;;0.20;;
24279;SDS011;12395;42.808;23.408;2022-09-21T13:56:40;0.10;;;0.10;;
24279;SDS011;12395;42.808;23.408;2022-09-21T13:59:11;0.32;;;0.20;;
24279;SDS011;12395;42.808;23.408;2022-09-21T14:01:47;0.32;;;0.20;;
24279;SDS011;12395;42.808;23.408;2022-09-21T14:04:26;1.02;;;0.20;;
24279;SDS011;12395;42.808;23.408;2022-09-21T14:06:55;2.10;;;0.20;;
24279;SDS011;12395;42.808;23.408;2022-09-21T14:09:26;0.28;;;0.28;;
24279;SDS011;12395;42.808;23.408;2022-09-21T14:12:05;0.50;;;0.30;;
24279;SDS011;12395;42.808;23.408;2022-09-21T14:19:58;0.20;;;0.20;;
24279;SDS011;12395;42.808;23.408;2022-09-21T14:25:14;0.38;;;0.30;;
24279;SDS011;12395;42.808;23.408;2022-09-21T14:27:53;0.40;;;0.30;;
24279;SDS011;12395;42.808;23.408;2022-09-21T14:30:24;0.30;;;0.30;;
24279;SDS011;12395;42.808;23.408;2022-09-21T14:33:00;0.20;;;0.20;;
24279;SDS011;12395;42.808;23.408;2022-09-21T14:35:36;0.35;;;0.20;;
24279;SDS011;12395;42.808;23.408;2022-09-21T14:40:53;0.30;;;0.30;;
24279;SDS011;12395;42.808;23.408;2022-09-21T14:43:28;0.77;;;0.30;;
24279;SDS011;12395;42.808;23.408;2022-09-21T14:51:20;1.40;;;0.50;;
24279;SDS011;12395;42.808;23.408;2022-09-21T15:02:00;1.25;;;0.70;;
24279;SDS011;12395;42.808;23.408;2022-09-21T15:04:46;1.23;;;1.00;;
24279;SDS011;12395;42.808;23.408;2022-09-21T15:13:26;1.10;;;1.00;;
24279;SDS011;12395;42.808;23.408;2022-09-21T15:16:11;1.23;;;0.95;;
24279;SDS011;12395;42.808;23.408;2022-09-21T15:18:43;1.40;;;1.30;;
24279;SDS011;12395;42.808;23.408;2022-09-21T15:21:26;1.58;;;1.13;;
24279;SDS011;12395;42.808;23.408;2022-09-21T15:23:53;1.25;;;1.10;;
24279;SDS011;12395;42.808;23.408;2022-09-21T15:26:24;2.00;;;1.23;;
24279;SDS011;12395;42.808;23.408;2022-09-21T15:28:54;1.33;;;1.10;;
24279;SDS011;12395;42.808;23.408;2022-09-21T15:31:22;1.60;;;1.30;;
24279;SDS011;12395;42.808;23.408;2022-09-21T15:33:48;1.30;;;1.20;;
24279;SDS011;12395;42.808;23.408;2022-09-21T15:36:23;1.73;;;1.25;;
24279;SDS011;12395;42.808;23.408;2022-09-21T15:38:52;1.30;;;1.20;;
24279;SDS011;12395;42.808;23.408;2022-09-21T15:44:05;1.42;;;1.33;;
24279;SDS011;12395;42.808;23.408;2022-09-21T15:46:40;1.58;;;1.30;;
24279;SDS011;12395;42.808;23.408;2022-09-21T15:49:10;1.60;;;1.30;;
24279;SDS011;12395;42.808;23.408;2022-09-21T15:51:37;1.30;;;1.20;;
24279;SDS011;12395;42.808;23.408;2022-09-21T15:54:15;1.55;;;1.27;;
24279;SDS011;12395;42.808;23.408;2022-09-21T15:56:50;1.40;;;1.30;;
24279;SDS011;12395;42.808;23.408;2022-09-21T15:59:18;1.38;;;1.27;;
24279;SDS011;12395;42.808;23.408;2022-09-21T16:04:14;1.35;;;1.20;;
24279;SDS011;12395;42.808;23.408;2022-09-21T16:06:43;2.05;;;1.50;;
24279;SDS011;12395;42.808;23.408;2022-09-21T16:11:52;1.92;;;1.50;;
24279;SDS011;12395;42.808;23.408;2022-09-21T16:14:19;1.92;;;1.58;;
24279;SDS011;12395;42.808;23.408;2022-09-21T16:17:05;2.03;;;1.60;;
24279;SDS011;12395;42.808;23.408;2022-09-21T16:19:41;2.13;;;1.63;;
24279;SDS011;12395;42.808;23.408;2022-09-21T16:22:23;2.05;;;1.52;;
24279;SDS011;12395;42.808;23.408;2022-09-21T16:24:55;2.05;;;1.58;;
24279;SDS011;12395;42.808;23.408;2022-09-21T16:27:25;3.20;;;2.00;;
24279;SDS011;12395;42.808;23.408;2022-09-21T16:29:53;2.65;;;1.70;;
24279;SDS011;12395;42.808;23.408;2022-09-21T16:32:26;1.92;;;1.73;;
24279;SDS011;12395;42.808;23.408;2022-09-21T16:37:40;2.95;;;2.20;;
24279;SDS011;12395;42.808;23.408;2022-09-21T16:40:08;3.42;;;1.90;;
24279;SDS011;12395;42.808;23.408;2022-09-21T16:42:33;3.63;;;2.22;;
24279;SDS011;12395;42.808;23.408;2022-09-21T16:44:59;3.58;;;2.15;;
24279;SDS011;12395;42.808;23.408;2022-09-21T16:49:53;3.53;;;2.40;;
24279;SDS011;12395;42.808;23.408;2022-09-21T16:52:26;4.97;;;2.40;;
24279;SDS011;12395;42.808;23.408;2022-09-21T16:54:52;2.83;;;2.20;;
24279;SDS011;12395;42.808;23.408;2022-09-21T16:57:18;3.97;;;2.47;;
24279;SDS011;12395;42.808;23.408;2022-09-21T16:59:44;4.03;;;2.30;;
24279;SDS011;12395;42.808;23.408;2022-09-21T17:02:10;2.97;;;2.00;;
24279;SDS011;12395;42.808;23.408;2022-09-21T17:04:38;2.50;;;1.90;;
24279;SDS011;12395;42.808;23.408;2022-09-21T17:07:04;3.08;;;1.90;;
24279;SDS011;12395;42.808;23.408;2022-09-21T17:12:03;3.60;;;2.20;;
24279;SDS011;12395;42.808;23.408;2022-09-21T17:14:32;2.80;;;2.15;;
24279;SDS011;12395;42.808;23.408;2022-09-21T17:17:03;3.42;;;2.10;;
24279;SDS011;12395;42.808;23.408;2022-09-21T17:19:32;2.97;;;2.08;;
24279;SDS011;12395;42.808;23.408;2022-09-21T17:21:58;2.58;;;2.00;;
24279;SDS011;12395;42.808;23.408;2022-09-21T17:24:24;2.50;;;1.95;;
24279;SDS011;12395;42.808;23.408;2022-09-21T17:26:50;2.58;;;1.83;;
24279;SDS011;12395;42.808;23.408;2022-09-21T17:29:17;3.00;;;2.20;;
24279;SDS011;12395;42.808;23.408;2022-09-21T17:31:48;3.28;;;2.03;;
24279;SDS011;12395;42.808;23.408;2022-09-21T17:34:17;2.97;;;2.30;;
24279;SDS011;12395;42.808;23.408;2022-09-21T17:36:44;3.15;;;2.13;;
24279;SDS011;12395;42.808;23.408;2022-09-21T17:39:10;4.88;;;2.55;;
24279;SDS011;12395;42.808;23.408;2022-09-21T17:41:38;2.95;;;2.22;;
24279;SDS011;12395;42.808;23.408;2022-09-21T17:47:18;5.13;;;3.08;;
24279;SDS011;12395;42.808;23.408;2022-09-21T17:52:18;9.45;;;5.03;;
24279;SDS011;12395;42.808;23.408;2022-09-21T17:55:04;10.40;;;6.10;;
24279;SDS011;12395;42.808;23.408;2022-09-21T18:03:40;8.10;;;4.30;;
24279;SDS011;12395;42.808;23.408;2022-09-21T18:06:07;6.80;;;3.88;;
24279;SDS011;12395;42.808;23.408;2022-09-21T18:08:34;7.93;;;3.95;;
24279;SDS011;12395;42.808;23.408;2022-09-21T18:13:42;8.65;;;4.60;;
24279;SDS011;12395;42.808;23.408;2022-09-21T18:25:31;7.50;;;3.50;;
24279;SDS011;12395;42.808;23.408;2022-09-21T18:28:00;7.95;;;3.50;;
24279;SDS011;12395;42.808;23.408;2022-09-21T18:30:36;5.80;;;2.80;;
24279;SDS011;12395;42.808;23.408;2022-09-21T18:35:50;4.75;;;2.45;;
24279;SDS011;12395;42.808;23.408;2022-09-21T18:43:59;5.53;;;2.20;;
24279;SDS011;12395;42.808;23.408;2022-09-21T18:52:09;2.80;;;2.30;;
24279;SDS011;12395;42.808;23.408;2022-09-21T18:57:38;4.25;;;2.30;;
24279;SDS011;12395;42.808;23.408;2022-09-21T19:00:04;3.42;;;2.30;;
24279;SDS011;12395;42.808;23.408;2022-09-21T19:02:30;3.10;;;2.22;;
24279;SDS011;12395;42.808;23.408;2022-09-21T19:04:56;3.05;;;2.28;;
24279;SDS011;12395;42.808;23.408;2022-09-21T19:07:30;3.15;;;2.17;;
24279;SDS011;12395;42.808;23.408;2022-09-21T19:15:38;2.85;;;1.90;;
24279;SDS011;12395;42.808;23.408;2022-09-21T19:18:23;2.75;;;1.95;;